createdAt,value
2018-07-16T00:01:51.840Z,1.87
2018-07-16T00:04:24.704Z,1.70
2018-07-16T00:06:58.631Z,1.37
2018-07-16T00:09:32.789Z,4.47
2018-07-16T00:12:07.236Z,2.40
2018-07-16T00:14:41.427Z,2.20
2018-07-16T00:17:13.925Z,1.83
2018-07-16T00:19:47.190Z,1.40
2018-07-16T00:22:20.092Z,3.10
2018-07-16T00:24:52.641Z,1.20
2018-07-16T00:27:25.180Z,1.00
2018-07-16T00:29:57.986Z,2.23
2018-07-16T00:32:31.162Z,1.77
2018-07-16T00:35:04.669Z,1.40
2018-07-16T00:37:40.003Z,3.93
2018-07-16T00:40:13.988Z,2.60
2018-07-16T00:42:48.315Z,2.20
2018-07-16T00:45:21.514Z,1.47
2018-07-16T00:47:54.241Z,1.43
2018-07-16T00:50:29.690Z,3.17
2018-07-16T00:53:02.693Z,1.53
2018-07-16T00:55:35.874Z,2.27
2018-07-16T00:58:08.337Z,2.00
2018-07-16T01:00:42.314Z,1.90
2018-07-16T01:03:15.456Z,1.40
2018-07-16T01:05:47.871Z,1.60
2018-07-16T01:08:20.658Z,1.40
2018-07-16T01:10:53.907Z,4.43
2018-07-16T01:13:26.470Z,2.73
2018-07-16T01:15:59.471Z,5.30
2018-07-16T01:18:32.231Z,2.07
2018-07-16T01:21:05.077Z,4.90
2018-07-16T01:23:41.741Z,2.00
2018-07-16T01:26:17.137Z,3.17
2018-07-16T01:28:49.670Z,1.75
2018-07-16T01:31:22.280Z,3.37
2018-07-16T01:33:55.049Z,2.57
2018-07-16T01:36:27.602Z,1.73
2018-07-16T01:39:00.493Z,1.93
2018-07-16T01:41:33.478Z,2.30
2018-07-16T01:44:05.876Z,3.60
2018-07-16T01:46:38.325Z,3.23
2018-07-16T01:49:11.197Z,2.10
2018-07-16T01:51:43.715Z,2.35
2018-07-16T01:54:16.389Z,3.73
2018-07-16T01:56:52.227Z,3.23
2018-07-16T01:59:25.720Z,2.67
2018-07-16T02:01:59.796Z,2.80
2018-07-16T02:04:32.778Z,2.93
2018-07-16T02:07:05.334Z,2.83
2018-07-16T02:09:37.932Z,2.72
2018-07-16T02:12:14.009Z,3.97
2018-07-16T02:14:48.532Z,2.50
2018-07-16T02:17:21.515Z,3.37
2018-07-16T02:19:57.037Z,3.03
2018-07-16T02:22:29.624Z,2.23
2018-07-16T02:25:02.479Z,1.98
2018-07-16T02:27:36.409Z,2.97
2018-07-16T02:30:08.932Z,2.60
2018-07-16T02:32:41.358Z,7.13
2018-07-16T02:35:14.303Z,3.58
2018-07-16T02:37:46.983Z,2.23
2018-07-16T02:40:19.696Z,2.90
2018-07-16T02:42:53.561Z,3.00
2018-07-16T02:45:27.216Z,3.87
2018-07-16T02:47:59.948Z,3.77
2018-07-16T02:50:34.016Z,2.80
2018-07-16T02:53:07.187Z,3.73
2018-07-16T02:55:39.609Z,2.53
2018-07-16T02:58:14.588Z,4.07
2018-07-16T03:00:47.169Z,3.78
2018-07-16T03:03:20.127Z,4.97
2018-07-16T03:05:52.948Z,2.60
2018-07-16T03:08:25.545Z,4.27
2018-07-16T03:10:59.591Z,3.03
2018-07-16T03:13:38.392Z,3.17
2018-07-16T03:16:11.050Z,4.67
2018-07-16T03:18:44.433Z,4.57
2018-07-16T03:21:17.234Z,2.53
2018-07-16T03:23:49.797Z,2.77
2018-07-16T03:26:22.324Z,4.37
2018-07-16T03:28:55.428Z,2.43
2018-07-16T03:31:29.349Z,4.97
2018-07-16T03:34:01.781Z,2.92
2018-07-16T03:36:34.722Z,3.00
2018-07-16T03:39:09.576Z,3.07
2018-07-16T03:41:42.416Z,5.67
2018-07-16T03:44:15.168Z,3.00
2018-07-16T03:46:47.724Z,3.47
2018-07-16T03:49:20.308Z,2.53
2018-07-16T03:51:52.976Z,2.80
2018-07-16T03:54:26.462Z,4.77
2018-07-16T03:56:58.845Z,3.10
2018-07-16T03:59:32.608Z,4.72
2018-07-16T04:02:06.275Z,4.57
2018-07-16T04:04:39.977Z,5.30
2018-07-16T04:07:12.846Z,6.60
2018-07-16T04:09:46.351Z,3.57
2018-07-16T04:12:18.816Z,3.40
2018-07-16T04:14:53.436Z,3.33
2018-07-16T04:17:25.911Z,3.67
2018-07-16T04:19:58.621Z,4.63
2018-07-16T04:22:31.506Z,4.70
2018-07-16T04:25:04.324Z,4.23
2018-07-16T04:27:36.629Z,3.30
2018-07-16T04:30:14.705Z,3.60
2018-07-16T04:32:47.175Z,3.93
2018-07-16T04:35:21.124Z,3.47
2018-07-16T04:37:54.424Z,4.70
2018-07-16T04:40:26.846Z,5.77
2018-07-16T04:43:01.011Z,3.20
2018-07-16T04:45:34.048Z,5.10
2018-07-16T04:48:08.672Z,4.50
2018-07-16T04:50:46.166Z,3.60
2018-07-16T04:53:19.080Z,4.73
2018-07-16T04:55:53.052Z,4.70
2018-07-16T04:58:25.918Z,3.50
2018-07-16T05:01:03.680Z,4.20
2018-07-16T05:03:36.152Z,5.97
2018-07-16T05:06:08.734Z,5.77
2018-07-16T05:08:42.529Z,4.53
2018-07-16T05:11:15.086Z,5.47
2018-07-16T05:13:47.799Z,3.67
2018-07-16T05:16:21.241Z,5.00
2018-07-16T05:18:54.858Z,5.67
2018-07-16T05:21:27.208Z,5.87
2018-07-16T05:24:01.379Z,6.13
2018-07-16T05:26:34.094Z,5.80
2018-07-16T05:29:06.546Z,6.40
2018-07-16T05:31:40.454Z,6.40
2018-07-16T05:34:12.972Z,9.23
2018-07-16T05:36:45.387Z,5.87
2018-07-16T05:39:18.164Z,12.60
2018-07-16T05:41:50.980Z,11.77
2018-07-16T05:44:23.832Z,6.07
2018-07-16T05:46:56.677Z,18.97
2018-07-16T05:49:29.752Z,16.83
2018-07-16T05:52:02.207Z,11.17
2018-07-16T05:54:35.049Z,15.30
2018-07-16T05:57:07.757Z,13.10
2018-07-16T05:59:40.333Z,10.93
2018-07-16T06:02:14.397Z,13.30
2018-07-16T06:04:47.879Z,9.80
2018-07-16T06:07:20.411Z,9.40
2018-07-16T06:09:53.335Z,9.73
2018-07-16T06:12:25.966Z,10.15
2018-07-16T06:14:58.519Z,12.13
2018-07-16T06:17:31.264Z,10.67
2018-07-16T06:20:09.372Z,11.07
2018-07-16T06:22:41.981Z,6.53
2018-07-16T06:25:15.922Z,11.93
2018-07-16T06:27:49.283Z,13.50
2018-07-16T06:30:22.070Z,11.47
2018-07-16T06:32:56.526Z,6.60
2018-07-16T06:35:28.996Z,10.00
2018-07-16T06:38:01.385Z,12.37
2018-07-16T06:40:34.119Z,5.47
2018-07-16T06:43:06.709Z,13.90
2018-07-16T06:45:39.545Z,10.93
2018-07-16T06:48:13.113Z,10.47
2018-07-16T06:50:45.526Z,11.77
2018-07-16T06:53:18.380Z,6.70
2018-07-16T06:55:53.296Z,7.17
2018-07-16T06:58:26.355Z,5.73
2018-07-16T07:00:58.929Z,6.40
2018-07-16T07:03:31.873Z,14.27
2018-07-16T07:06:05.477Z,7.40
2018-07-16T07:08:38.322Z,7.33
2018-07-16T07:11:12.359Z,8.20
2018-07-16T07:13:46.291Z,2.77
2018-07-16T07:16:22.102Z,5.10
2018-07-16T07:18:54.466Z,4.93
2018-07-16T07:21:27.428Z,3.07
2018-07-16T07:24:00.521Z,2.27
2018-07-16T07:26:34.598Z,3.75
2018-07-16T07:29:09.568Z,5.97
2018-07-16T07:31:45.683Z,2.17
2018-07-16T07:34:21.014Z,4.30
2018-07-16T07:37:03.246Z,6.23
2018-07-16T07:39:35.856Z,2.87
2018-07-16T07:42:09.966Z,4.57
2018-07-16T07:44:44.598Z,3.40
2018-07-16T07:47:17.301Z,3.27
2018-07-16T07:49:51.893Z,2.70
2018-07-16T07:52:25.377Z,1.67
2018-07-16T07:54:57.989Z,1.77
2018-07-16T07:57:30.937Z,2.30
2018-07-16T08:00:11.229Z,2.73
2018-07-16T08:02:48.840Z,2.80
2018-07-16T08:05:29.853Z,2.00
2018-07-16T08:08:07.079Z,4.17
2018-07-16T08:10:42.767Z,4.33
2018-07-16T08:13:19.439Z,5.37
2018-07-16T08:15:53.220Z,1.50
2018-07-16T08:18:35.681Z,3.90
2018-07-16T08:21:19.672Z,5.57
2018-07-16T08:24:04.773Z,3.50
2018-07-16T08:26:38.588Z,1.77
2018-07-16T08:29:14.754Z,2.80
2018-07-16T08:31:48.404Z,1.80
2018-07-16T08:34:25.704Z,2.13
2018-07-16T08:37:03.446Z,2.47
2018-07-16T08:39:36.514Z,2.50
2018-07-16T08:42:09.505Z,1.50
2018-07-16T08:44:46.312Z,1.50
2018-07-16T08:47:19.304Z,2.30
2018-07-16T08:49:56.637Z,2.30
2018-07-16T08:52:30.412Z,2.40
2018-07-16T08:55:04.118Z,2.30
2018-07-16T08:57:40.226Z,3.13
2018-07-16T09:00:15.221Z,2.43
2018-07-16T09:02:53.621Z,3.50
2018-07-16T09:05:30.336Z,3.17
2018-07-16T09:08:05.101Z,3.27
2018-07-16T09:10:43.525Z,3.58
2018-07-16T09:13:21.046Z,2.53
2018-07-16T09:15:54.685Z,2.40
2018-07-16T09:18:34.011Z,6.07
2018-07-16T09:21:12.584Z,2.00
2018-07-16T09:23:50.752Z,2.50
2018-07-16T09:26:34.248Z,3.27
2018-07-16T09:29:08.326Z,2.50
2018-07-16T09:31:42.478Z,5.13
2018-07-16T09:34:17.417Z,2.37
2018-07-16T09:36:53.479Z,4.80
2018-07-16T09:39:27.328Z,3.50
2018-07-16T09:42:01.109Z,3.03
2018-07-16T09:44:36.073Z,3.85
2018-07-16T09:47:13.080Z,3.83
2018-07-16T09:49:46.722Z,4.60
2018-07-16T09:52:19.373Z,5.70
2018-07-16T09:54:52.912Z,3.30
2018-07-16T09:57:27.259Z,4.50
2018-07-16T10:00:00.129Z,1.50
2018-07-16T10:02:36.334Z,3.50
2018-07-16T10:05:10.047Z,3.17
2018-07-16T10:07:42.593Z,3.47
2018-07-16T10:10:17.028Z,2.97
2018-07-16T10:12:50.119Z,2.23
2018-07-16T10:15:24.802Z,4.30
2018-07-16T10:17:57.973Z,6.40
2018-07-16T10:20:30.605Z,4.40
2018-07-16T10:23:13.230Z,8.33
2018-07-16T10:25:45.952Z,5.67
2018-07-16T10:28:25.207Z,3.47
2018-07-16T10:30:57.707Z,5.47
2018-07-16T10:33:31.369Z,4.97
2018-07-16T10:36:04.495Z,3.90
2018-07-16T10:38:40.002Z,3.70
2018-07-16T10:41:13.800Z,2.00
2018-07-16T10:43:47.207Z,2.62
2018-07-16T10:46:19.928Z,5.63
2018-07-16T10:48:52.488Z,3.50
2018-07-16T10:51:25.848Z,3.23
2018-07-16T10:53:59.769Z,3.10
2018-07-16T10:56:32.350Z,3.97
2018-07-16T10:59:08.533Z,4.43
2018-07-16T11:01:41.337Z,2.57
2018-07-16T11:04:20.373Z,3.90
2018-07-16T11:06:54.268Z,3.30
2018-07-16T11:09:29.119Z,3.20
2018-07-16T11:12:05.010Z,5.97
2018-07-16T11:14:39.260Z,1.93
2018-07-16T11:17:12.349Z,3.03
2018-07-16T11:19:49.101Z,3.43
2018-07-16T11:22:22.884Z,1.93
2018-07-16T11:24:58.627Z,3.83
2018-07-16T11:27:33.830Z,2.80
2018-07-16T11:30:10.167Z,2.67
2018-07-16T11:32:53.529Z,2.73
2018-07-16T11:35:26.307Z,6.33
2018-07-16T11:37:59.164Z,3.70
2018-07-16T11:40:36.967Z,5.50
2018-07-16T11:43:11.502Z,4.55
2018-07-16T11:45:47.338Z,3.77
2018-07-16T11:48:29.560Z,3.85
2018-07-16T11:51:07.846Z,3.17
2018-07-16T11:53:44.875Z,2.97
2018-07-16T11:56:19.660Z,3.60
2018-07-16T11:58:53.035Z,4.53
2018-07-16T12:01:26.744Z,3.12
2018-07-16T12:03:59.984Z,2.03
2018-07-16T12:06:32.575Z,3.23
2018-07-16T12:09:07.091Z,6.93
2018-07-16T12:11:39.716Z,3.33
2018-07-16T12:14:12.477Z,3.03
2018-07-16T12:16:46.645Z,5.80
2018-07-16T12:19:19.244Z,2.00
2018-07-16T12:21:56.428Z,4.37
2018-07-16T12:24:29.290Z,1.90
2018-07-16T12:27:05.757Z,3.80
2018-07-16T12:29:41.089Z,2.20
2018-07-16T12:32:18.333Z,4.20
2018-07-16T12:34:57.195Z,2.03
2018-07-16T12:37:32.624Z,2.93
2018-07-16T12:40:24.892Z,3.17
2018-07-16T12:43:06.185Z,7.60
2018-07-16T12:45:39.822Z,1.90
2018-07-16T12:48:13.246Z,2.27
2018-07-16T12:50:50.870Z,4.15
2018-07-16T12:53:24.781Z,3.50
2018-07-16T12:55:59.172Z,2.10
2018-07-16T12:58:35.325Z,2.75
2018-07-16T13:01:09.378Z,2.07
2018-07-16T13:03:45.053Z,2.90
2018-07-16T13:06:24.124Z,3.40
2018-07-16T13:08:58.549Z,2.03
2018-07-16T13:11:32.245Z,4.33
2018-07-16T13:14:04.724Z,2.13
2018-07-16T13:16:40.444Z,2.23
2018-07-16T13:19:14.837Z,1.55
2018-07-16T13:21:50.894Z,1.63
2018-07-16T13:24:25.318Z,1.37
2018-07-16T13:26:58.880Z,3.40
2018-07-16T13:29:32.246Z,4.93
2018-07-16T13:32:06.725Z,2.73
2018-07-16T13:34:40.068Z,2.73
2018-07-16T13:37:15.745Z,5.07
2018-07-16T13:39:49.825Z,1.83
2018-07-16T13:42:28.346Z,1.58
2018-07-16T13:45:04.001Z,3.20
2018-07-16T13:47:38.965Z,2.63
2018-07-16T13:50:11.998Z,2.07
2018-07-16T13:52:45.433Z,1.90
2018-07-16T13:55:18.229Z,4.03
2018-07-16T13:57:52.072Z,2.83
2018-07-16T14:00:25.444Z,1.43
2018-07-16T14:02:58.588Z,2.37
2018-07-16T14:05:32.484Z,2.03
2018-07-16T14:08:05.301Z,1.40
2018-07-16T14:10:39.485Z,1.90
2018-07-16T14:13:12.073Z,3.30
2018-07-16T14:15:45.445Z,2.37
2018-07-16T14:18:20.041Z,1.60
2018-07-16T14:20:53.844Z,1.50
2018-07-16T14:23:28.735Z,2.90
2018-07-16T14:26:01.352Z,2.33
2018-07-16T14:28:35.497Z,1.87
2018-07-16T14:31:09.355Z,1.62
2018-07-16T14:33:43.001Z,1.43
2018-07-16T14:36:18.791Z,2.50
2018-07-16T14:38:53.269Z,1.80
2018-07-16T14:41:26.869Z,1.30
2018-07-16T14:43:59.913Z,1.40
2018-07-16T14:46:34.095Z,2.03
2018-07-16T14:49:17.525Z,3.50
2018-07-16T14:51:51.897Z,1.23
2018-07-16T14:54:26.249Z,2.67
2018-07-16T14:56:58.831Z,3.17
2018-07-16T14:59:33.479Z,2.40
2018-07-16T15:02:09.229Z,2.00
2018-07-16T15:04:43.825Z,1.30
2018-07-16T15:07:18.449Z,2.40
2018-07-16T15:09:51.316Z,2.40
2018-07-16T15:12:25.089Z,1.57
2018-07-16T15:14:59.994Z,1.92
2018-07-16T15:17:38.794Z,3.33
2018-07-16T15:20:12.577Z,2.77
2018-07-16T15:22:46.825Z,2.07
2018-07-16T15:25:20.487Z,3.33
2018-07-16T15:27:56.341Z,1.43
2018-07-16T15:30:30.233Z,2.40
2018-07-16T15:33:05.125Z,3.00
2018-07-16T15:35:39.098Z,1.27
2018-07-16T15:38:18.589Z,1.30
2018-07-16T15:40:52.285Z,2.00
2018-07-16T15:43:26.098Z,1.30
2018-07-16T15:45:59.068Z,4.20
2018-07-16T15:48:33.887Z,1.87
2018-07-16T15:51:09.597Z,2.53
2018-07-16T15:53:42.404Z,2.27
2018-07-16T15:56:14.965Z,1.23
2018-07-16T15:58:48.012Z,1.73
2018-07-16T16:01:21.601Z,2.27
2018-07-16T16:03:57.061Z,1.33
2018-07-16T16:06:30.960Z,2.43
2018-07-16T16:09:05.900Z,1.50
2018-07-16T16:11:38.493Z,2.57
2018-07-16T16:14:11.612Z,2.30
2018-07-16T16:16:46.012Z,2.80
2018-07-16T16:19:21.585Z,1.30
2018-07-16T16:21:55.219Z,1.10
2018-07-16T16:24:29.509Z,1.60
2018-07-16T16:27:07.281Z,1.47
2018-07-16T16:29:42.512Z,2.13
2018-07-16T16:32:16.392Z,1.40
2018-07-16T16:34:54.118Z,4.37
2018-07-16T16:37:47.178Z,1.40
2018-07-16T16:40:21.721Z,1.60
2018-07-16T16:42:55.525Z,3.23
2018-07-16T16:45:36.035Z,1.50
2018-07-16T16:48:09.707Z,3.17
2018-07-16T16:50:47.751Z,2.03
2018-07-16T16:53:21.392Z,3.00
2018-07-16T16:55:55.422Z,1.03
2018-07-16T16:58:34.214Z,1.53
2018-07-16T17:01:08.695Z,1.27
2018-07-16T17:03:44.300Z,2.73
2018-07-16T17:06:21.739Z,2.20
2018-07-16T17:08:54.341Z,1.30
2018-07-16T17:11:28.629Z,1.40
2018-07-16T17:14:05.542Z,2.07
2018-07-16T17:16:38.503Z,2.65
2018-07-16T17:19:12.744Z,1.80
2018-07-16T17:21:48.380Z,2.00
2018-07-16T17:24:22.604Z,2.10
2018-07-16T17:26:57.072Z,1.83
2018-07-16T17:29:38.967Z,3.13
2018-07-16T17:32:11.388Z,3.03
2018-07-16T17:34:44.714Z,2.77
2018-07-16T17:37:18.516Z,3.53
2018-07-16T17:40:02.062Z,3.37
2018-07-16T17:42:40.389Z,2.20
2018-07-16T17:45:21.027Z,2.30
2018-07-16T17:47:59.174Z,3.27
2018-07-16T17:50:59.286Z,2.07
2018-07-16T17:53:57.741Z,1.20
2018-07-16T17:56:36.200Z,2.23
2018-07-16T17:59:19.804Z,3.67
2018-07-16T18:02:04.689Z,3.40
2018-07-16T18:04:48.025Z,1.73
2018-07-16T18:07:31.547Z,1.13
2018-07-16T18:10:11.728Z,1.30
2018-07-16T18:12:49.824Z,2.17
2018-07-16T18:15:24.615Z,2.70
2018-07-16T18:18:06.033Z,1.80
2018-07-16T18:20:46.652Z,2.03
2018-07-16T18:23:26.804Z,5.27
2018-07-16T18:26:02.566Z,4.53
2018-07-16T18:28:40.500Z,3.07
2018-07-16T18:31:19.131Z,2.43
2018-07-16T18:33:54.741Z,8.40
2018-07-16T18:36:35.865Z,3.77
2018-07-16T18:39:13.370Z,2.37
2018-07-16T18:41:49.832Z,1.53
2018-07-16T18:44:24.298Z,4.70
2018-07-16T18:47:05.060Z,3.10
2018-07-16T18:49:40.244Z,5.32
2018-07-16T18:52:22.424Z,2.83
2018-07-16T18:55:04.639Z,2.73
2018-07-16T18:57:44.153Z,3.53
2018-07-16T19:00:18.491Z,2.27
2018-07-16T19:02:52.052Z,6.60
2018-07-16T19:05:27.315Z,3.07
2018-07-16T19:08:00.015Z,3.03
2018-07-16T19:10:36.801Z,5.03
2018-07-16T19:13:15.510Z,5.37
2018-07-16T19:15:54.827Z,3.87
2018-07-16T19:18:49.006Z,2.40
2018-07-16T19:21:22.936Z,3.20
2018-07-16T19:24:00.523Z,5.67
2018-07-16T19:26:35.522Z,4.90
2018-07-16T19:29:09.924Z,8.30
2018-07-16T19:31:45.833Z,5.30
2018-07-16T19:34:21.915Z,2.20
2018-07-16T19:36:56.818Z,5.10
2018-07-16T19:39:31.863Z,6.33
2018-07-16T19:42:06.764Z,4.43
2018-07-16T19:44:44.124Z,2.73
2018-07-16T19:47:17.696Z,1.73
2018-07-16T19:49:53.407Z,4.43
2018-07-16T19:52:28.343Z,3.53
2018-07-16T19:55:01.539Z,8.87
2018-07-16T19:57:36.152Z,1.50
2018-07-16T20:00:14.470Z,5.47
2018-07-16T20:02:49.120Z,4.33
2018-07-16T20:05:23.446Z,1.70
2018-07-16T20:08:03.155Z,4.67
2018-07-16T20:10:40.595Z,3.33
2018-07-16T20:13:17.276Z,4.83
2018-07-16T20:15:51.228Z,3.47
2018-07-16T20:18:25.315Z,4.80
2018-07-16T20:21:00.887Z,6.40
2018-07-16T20:23:35.544Z,3.60
2018-07-16T20:26:09.523Z,4.57
2018-07-16T20:28:44.828Z,7.43
2018-07-16T20:31:20.856Z,8.27
2018-07-16T20:33:55.788Z,3.37
2018-07-16T20:36:31.019Z,4.43
2018-07-16T20:39:10.088Z,4.45
2018-07-16T20:41:44.214Z,4.47
2018-07-16T20:44:20.525Z,3.92
2018-07-16T20:47:00.597Z,5.73
2018-07-16T20:49:40.823Z,5.27
2018-07-16T20:52:13.963Z,4.97
2018-07-16T20:54:47.800Z,3.60
2018-07-16T20:57:21.829Z,2.90
2018-07-16T20:59:57.846Z,3.30
2018-07-16T21:02:39.130Z,5.40
2018-07-16T21:05:20.588Z,3.77
2018-07-16T21:08:44.932Z,5.70
2018-07-16T21:11:33.749Z,2.67
2018-07-16T21:14:14.063Z,2.70
2018-07-16T21:17:16.036Z,2.37
2018-07-16T21:19:56.940Z,1.93
2018-07-16T21:22:43.034Z,3.83
2018-07-16T21:25:23.184Z,1.98
2018-07-16T21:28:16.081Z,2.33
2018-07-16T21:31:18.645Z,4.53
2018-07-16T21:34:14.105Z,3.20
2018-07-16T21:36:50.166Z,3.00
2018-07-16T21:39:54.602Z,3.35
2018-07-16T21:42:36.651Z,2.07
2018-07-16T21:45:28.927Z,2.28
2018-07-16T21:48:18.410Z,4.53
2018-07-16T21:51:04.606Z,2.50
2018-07-16T21:53:47.133Z,5.37
2018-07-16T21:56:31.985Z,12.57
2018-07-16T21:59:14.421Z,9.70
2018-07-16T22:01:49.556Z,5.82
2018-07-16T22:04:26.442Z,4.70
2018-07-16T22:07:05.861Z,5.50
2018-07-16T22:09:50.885Z,2.40
2018-07-16T22:12:47.777Z,3.93
2018-07-16T22:15:27.248Z,4.17
2018-07-16T22:18:09.189Z,6.83
2018-07-16T22:21:03.430Z,6.15
2018-07-16T22:23:53.652Z,4.50
2018-07-16T22:26:35.464Z,3.97
2018-07-16T22:29:15.489Z,6.12
2018-07-16T22:31:52.901Z,6.40
2018-07-16T22:34:37.417Z,5.60
2018-07-16T22:37:16.473Z,5.20
2018-07-16T22:39:51.758Z,5.62
2018-07-16T22:42:26.423Z,3.00
2018-07-16T22:45:05.015Z,2.10
2018-07-16T22:47:38.661Z,2.60
2018-07-16T22:50:13.236Z,2.03
2018-07-16T22:52:49.299Z,2.73
2018-07-16T22:55:26.845Z,2.93
2018-07-16T22:58:01.021Z,2.63
2018-07-16T23:00:35.364Z,7.50
2018-07-16T23:03:08.945Z,5.10
2018-07-16T23:05:44.078Z,2.90
2018-07-16T23:08:19.004Z,5.07
2018-07-16T23:10:56.590Z,2.60
2018-07-16T23:13:33.403Z,3.35
2018-07-16T23:16:07.938Z,3.77
2018-07-16T23:18:42.393Z,3.10
2018-07-16T23:21:15.428Z,3.87
2018-07-16T23:23:48.029Z,3.17
2018-07-16T23:26:20.838Z,3.20
2018-07-16T23:28:56.248Z,3.90
2018-07-16T23:31:30.474Z,3.17
2018-07-16T23:34:04.350Z,2.80
2018-07-16T23:36:37.684Z,4.37
2018-07-16T23:39:13.253Z,2.73
2018-07-16T23:41:47.129Z,2.80
2018-07-16T23:44:21.069Z,2.47
2018-07-16T23:46:54.614Z,5.47
2018-07-16T23:49:28.518Z,3.83
2018-07-16T23:52:04.851Z,3.83
2018-07-16T23:54:37.696Z,2.77
2018-07-16T23:57:12.724Z,4.87
2018-07-16T23:59:53.977Z,3.92
